Time;durP1;ratioP1;P1;durP2;ratioP2;P2;SDS_P1;SDS_P2;PMS_P1;PMS_P2;Temp;Humidity;BMP_temperature;BMP_pressure;BME280_temperature;BME280_humidity;BME280_pressure;Samples;Min_cycle;Max_cycle;Signal;HPM_P1;HPM_P2
2023/07/20 00:02:24;;;;;;;3.00;1.02;;;20.60;89.20;;;;;;5114814;28;20510;-79
2023/07/20 00:04:49;;;;;;;1.00;0.60;;;20.60;89.50;;;;;;5096846;28;20119;-80
2023/07/20 00:07:15;;;;;;;1.20;0.70;;;20.70;89.50;;;;;;5096404;28;20462;-80
2023/07/20 00:09:40;;;;;;;2.90;0.60;;;20.70;89.20;;;;;;5115040;28;20116;-80
2023/07/20 00:12:07;;;;;;;1.50;0.60;;;20.80;89.20;;;;;;5114747;28;20468;-79
2023/07/20 00:14:32;;;;;;;1.98;0.90;;;20.90;88.80;;;;;;5114558;28;20027;-79
2023/07/20 00:16:58;;;;;;;1.42;0.60;;;21.00;88.70;;;;;;5114154;28;20092;-79
2023/07/20 00:19:27;;;;;;;1.92;0.85;;;21.00;88.50;;;;;;5114259;28;20040;-79
2023/07/20 00:21:57;;;;;;;2.70;1.10;;;21.00;88.50;;;;;;5114466;28;20098;-79
2023/07/20 00:24:23;;;;;;;1.85;0.70;;;21.00;88.40;;;;;;5096924;28;20490;-79
2023/07/20 00:26:48;;;;;;;1.95;0.65;;;21.10;88.40;;;;;;5114196;28;20032;-79
2023/07/20 00:29:14;;;;;;;2.25;1.80;;;21.10;88.30;;;;;;5114605;28;20035;-79
2023/07/20 00:31:40;;;;;;;2.58;1.23;;;21.10;88.30;;;;;;5114454;28;20030;-79
2023/07/20 00:34:06;;;;;;;3.63;1.35;;;21.00;88.40;;;;;;5096260;28;20130;-79
2023/07/20 00:36:32;;;;;;;3.10;1.70;;;21.00;88.50;;;;;;5114041;28;20454;-79
2023/07/20 00:38:58;;;;;;;2.15;0.98;;;20.90;88.90;;;;;;5114516;28;20031;-79
2023/07/20 00:41:24;;;;;;;1.73;0.73;;;20.80;89.20;;;;;;5096064;28;20039;-79
2023/07/20 00:43:50;;;;;;;1.42;0.43;;;20.80;89.40;;;;;;5114090;28;20052;-78
2023/07/20 00:46:16;;;;;;;2.17;0.77;;;20.80;89.20;;;;;;5114208;28;20020;-79
2023/07/20 00:48:42;;;;;;;3.28;1.52;;;21.00;89.00;;;;;;5114038;28;20038;-79
2023/07/20 00:51:09;;;;;;;1.60;0.88;;;21.00;88.80;;;;;;5113607;28;20039;-79
2023/07/20 00:53:34;;;;;;;2.28;0.80;;;21.00;88.80;;;;;;5095864;28;20050;-79
2023/07/20 00:56:00;;;;;;;2.53;1.08;;;21.00;88.70;;;;;;5113779;28;20031;-79
2023/07/20 00:58:26;;;;;;;3.05;1.40;;;21.10;88.60;;;;;;5113732;28;20429;-78
2023/07/20 01:00:52;;;;;;;1.33;0.98;;;21.10;88.70;;;;;;5113653;28;20024;-79
2023/07/20 01:03:17;;;;;;;2.40;1.40;;;21.10;88.70;;;;;;5113570;28;20036;-79
2023/07/20 01:06:02;;;;;;;2.50;1.05;;;21.00;89.00;;;;;;5113787;28;20105;-78
2023/07/20 01:08:40;;;;;;;1.90;0.60;;;21.00;89.10;;;;;;5095911;28;20045;-79
2023/07/20 01:11:28;;;;;;;1.48;0.60;;;21.00;89.10;;;;;;5113714;28;20048;-79
2023/07/20 01:13:54;;;;;;;0.93;0.40;;;21.00;88.90;;;;;;5095782;28;20477;-79
2023/07/20 01:16:20;;;;;;;1.40;0.50;;;21.10;88.80;;;;;;5113875;28;20028;-79
2023/07/20 01:18:45;;;;;;;1.67;0.80;;;21.10;88.60;;;;;;5113228;28;20471;-79
2023/07/20 01:21:31;;;;;;;2.58;0.85;;;21.10;88.40;;;;;;5113750;28;20035;-79
2023/07/20 01:24:23;;;;;;;3.95;1.20;;;21.20;88.30;;;;;;5095569;28;20032;-79
2023/07/20 01:27:20;;;;;;;1.17;0.77;;;21.10;88.50;;;;;;5113737;28;20115;-79
2023/07/20 01:29:51;;;;;;;0.95;0.50;;;21.10;88.50;;;;;;5095408;28;20047;-79
2023/07/20 01:32:18;;;;;;;1.20;0.40;;;21.10;88.50;;;;;;5113485;28;20024;-79
2023/07/20 01:34:45;;;;;;;3.83;0.60;;;21.10;88.40;;;;;;5095463;28;20114;-79
2023/07/20 01:37:12;;;;;;;2.47;0.80;;;21.10;88.40;;;;;;5113415;28;20472;-80
2023/07/20 01:39:38;;;;;;;1.58;0.80;;;21.10;88.30;;;;;;5113472;28;20024;-80
2023/07/20 01:42:04;;;;;;;2.15;0.63;;;21.20;88.30;;;;;;5095128;28;20039;-80
2023/07/20 01:44:30;;;;;;;1.75;0.70;;;21.10;88.20;;;;;;5113502;28;20055;-80
2023/07/20 01:46:56;;;;;;;2.70;1.23;;;21.20;88.40;;;;;;5113230;28;20050;-80
2023/07/20 01:49:21;;;;;;;0.95;0.45;;;21.20;88.30;;;;;;5113586;28;20420;-79
2023/07/20 01:51:47;;;;;;;1.90;0.85;;;21.20;88.60;;;;;;5113485;28;20103;-79
2023/07/20 01:54:13;;;;;;;1.30;0.60;;;21.20;88.50;;;;;;5113659;28;20384;-78
2023/07/20 01:56:38;;;;;;;1.15;0.50;;;21.10;88.40;;;;;;5113600;28;20027;-79
2023/07/20 01:59:04;;;;;;;1.58;0.40;;;21.10;88.50;;;;;;5113264;28;20067;-79
2023/07/20 02:01:30;;;;;;;1.23;0.55;;;21.20;88.50;;;;;;5113978;28;20478;-79
2023/07/20 02:03:55;;;;;;;1.80;0.45;;;21.10;88.30;;;;;;5081947;28;20032;-79
2023/07/20 02:06:21;;;;;;;1.90;0.57;;;21.20;88.40;;;;;;5117169;28;20028;-79
2023/07/20 02:08:47;;;;;;;0.93;0.38;;;21.10;88.30;;;;;;5116500;28;20034;-79
2023/07/20 02:11:12;;;;;;;1.60;0.30;;;21.20;88.30;;;;;;5099176;28;20028;-80
2023/07/20 02:13:38;;;;;;;1.02;0.45;;;21.20;88.20;;;;;;5116777;28;20445;-79
2023/07/20 02:16:05;;;;;;;1.17;0.70;;;21.20;88.20;;;;;;5116707;28;20106;-80
2023/07/20 02:18:30;;;;;;;1.27;0.55;;;21.10;88.20;;;;;;5116429;28;20406;-80
2023/07/20 02:20:56;;;;;;;0.95;0.30;;;21.20;88.30;;;;;;5116593;28;20039;-79
2023/07/20 02:23:22;;;;;;;1.25;0.40;;;21.20;88.30;;;;;;5116744;28;20031;-79
2023/07/20 02:25:47;;;;;;;0.70;0.40;;;21.20;88.20;;;;;;5116855;28;20074;-79
2023/07/20 02:28:14;;;;;;;1.33;0.40;;;21.20;88.10;;;;;;5116642;28;20031;-78
2023/07/20 02:30:40;;;;;;;0.88;0.30;;;21.30;88.00;;;;;;5116206;28;20081;-79
2023/07/20 02:33:06;;;;;;;1.45;0.30;;;21.30;88.00;;;;;;5116545;28;20426;-79
2023/07/20 02:35:32;;;;;;;0.95;0.40;;;21.30;87.90;;;;;;5116876;28;20473;-79
2023/07/20 02:37:58;;;;;;;0.95;0.35;;;21.30;87.80;;;;;;5098280;28;20024;-79
2023/07/20 02:40:24;;;;;;;0.80;0.40;;;21.30;87.80;;;;;;5116535;28;20057;-79
2023/07/20 02:42:49;;;;;;;0.60;0.30;;;21.30;87.70;;;;;;5116161;28;20444;-79
2023/07/20 02:45:16;;;;;;;0.88;0.50;;;21.30;87.70;;;;;;5116340;28;20027;-79
2023/07/20 02:47:42;;;;;;;0.80;0.30;;;21.30;87.70;;;;;;5115840;28;20027;-79
2023/07/20 02:50:08;;;;;;;1.40;0.30;;;21.20;87.70;;;;;;5116226;28;20027;-79
2023/07/20 02:52:34;;;;;;;0.90;0.40;;;21.20;88.30;;;;;;5098019;28;20545;-79
2023/07/20 02:54:59;;;;;;;1.27;0.35;;;21.20;87.80;;;;;;5115882;28;20028;-79
2023/07/20 02:57:25;;;;;;;0.90;0.30;;;21.20;87.70;;;;;;5098039;28;20031;-80
2023/07/20 02:59:51;;;;;;;0.77;0.40;;;21.20;87.70;;;;;;5097454;28;20051;-79
2023/07/20 03:02:16;;;;;;;0.90;0.30;;;21.20;87.80;;;;;;5115712;28;20081;-80
2023/07/20 03:04:42;;;;;;;0.68;0.32;;;21.20;87.70;;;;;;5116331;28;20479;-79
2023/07/20 03:07:08;;;;;;;0.80;0.40;;;21.20;87.70;;;;;;5115979;28;20055;-80
2023/07/20 03:09:33;;;;;;;1.40;0.40;;;21.20;87.80;;;;;;5115988;28;20477;-79
2023/07/20 03:11:59;;;;;;;1.45;0.40;;;21.20;87.70;;;;;;5063784;28;20028;-79
2023/07/20 03:14:25;;;;;;;0.90;0.40;;;21.20;87.70;;;;;;5115262;28;20472;-79
2023/07/20 03:16:50;;;;;;;1.05;0.30;;;21.20;87.70;;;;;;5115104;28;20031;-80
2023/07/20 03:19:16;;;;;;;0.85;0.38;;;21.20;87.70;;;;;;5097458;28;20081;-80
2023/07/20 03:21:42;;;;;;;0.77;0.20;;;21.20;87.60;;;;;;5097508;28;20122;-80
2023/07/20 03:24:08;;;;;;;0.60;0.28;;;21.20;87.60;;;;;;5115375;28;20788;-79
2023/07/20 03:26:34;;;;;;;0.73;0.30;;;21.10;87.60;;;;;;5115546;28;20073;-80
2023/07/20 03:29:00;;;;;;;0.68;0.25;;;21.10;87.60;;;;;;5115498;28;20115;-79
2023/07/20 03:31:26;;;;;;;0.70;0.30;;;21.10;87.70;;;;;;5115447;28;20586;-79
2023/07/20 03:33:52;;;;;;;0.75;0.22;;;21.10;87.60;;;;;;5115278;28;20521;-79
2023/07/20 03:36:17;;;;;;;0.85;0.30;;;21.00;87.60;;;;;;5096949;28;20035;-79
2023/07/20 03:38:43;;;;;;;0.88;0.30;;;21.00;87.60;;;;;;5115382;28;20027;-80
2023/07/20 03:41:09;;;;;;;0.82;0.30;;;21.10;87.70;;;;;;5097243;28;20027;-80
2023/07/20 03:43:35;;;;;;;0.50;0.20;;;21.00;87.70;;;;;;5096654;28;20409;-80
2023/07/20 03:46:00;;;;;;;0.50;0.20;;;21.00;87.80;;;;;;5096446;28;20433;-80
2023/07/20 03:48:26;;;;;;;1.10;0.55;;;21.00;87.80;;;;;;5114780;28;20111;-80
2023/07/20 03:50:54;;;;;;;0.82;0.20;;;21.00;87.80;;;;;;5097032;28;20034;-80
2023/07/20 03:53:20;;;;;;;1.15;0.20;;;21.00;87.80;;;;;;5096929;28;20032;-80
2023/07/20 03:55:46;;;;;;;0.50;0.20;;;21.00;87.90;;;;;;5115045;28;20057;-80
2023/07/20 03:58:13;;;;;;;1.30;0.30;;;20.90;87.80;;;;;;5115011;28;20028;-80
2023/07/20 04:00:40;;;;;;;1.33;0.20;;;20.90;87.80;;;;;;5096368;28;20024;-80
2023/07/20 04:03:05;;;;;;;0.88;0.30;;;20.90;87.80;;;;;;5096520;28;20084;-80
2023/07/20 04:05:31;;;;;;;0.85;0.22;;;20.90;87.80;;;;;;5114883;28;20114;-80
2023/07/20 04:07:57;;;;;;;0.82;0.30;;;20.90;87.80;;;;;;5114457;28;20035;-80
2023/07/20 04:10:22;;;;;;;0.75;0.20;;;20.90;87.60;;;;;;5096409;28;20132;-80
2023/07/20 04:12:48;;;;;;;0.65;0.30;;;20.90;87.70;;;;;;5114484;28;20453;-80
2023/07/20 04:15:14;;;;;;;0.73;0.20;;;20.90;87.80;;;;;;5096584;28;20039;-79
2023/07/20 04:17:40;;;;;;;0.75;0.20;;;20.80;87.80;;;;;;5095797;28;20032;-80
2023/07/20 04:20:07;;;;;;;0.55;0.32;;;20.80;88.00;;;;;;5114598;28;20019;-80
2023/07/20 04:22:33;;;;;;;0.77;0.32;;;20.70;87.90;;;;;;5096374;28;20028;-81
2023/07/20 04:24:59;;;;;;;0.50;0.28;;;20.70;88.10;;;;;;5113590;28;20380;-80
2023/07/20 04:27:24;;;;;;;0.40;0.20;;;20.70;88.10;;;;;;5095974;28;20043;-80
2023/07/20 04:29:50;;;;;;;1.00;0.40;;;20.70;88.20;;;;;;5114179;28;20027;-80
2023/07/20 04:32:16;;;;;;;1.55;0.20;;;20.70;88.20;;;;;;5095633;28;20027;-80
2023/07/20 04:34:42;;;;;;;0.75;0.20;;;20.70;88.30;;;;;;5095753;28;20055;-80
2023/07/20 04:37:07;;;;;;;1.40;0.40;;;20.70;88.30;;;;;;5114053;28;20020;-80
2023/07/20 04:39:33;;;;;;;0.43;0.20;;;20.70;88.20;;;;;;5096267;28;20028;-80
2023/07/20 04:41:59;;;;;;;0.43;0.22;;;20.70;88.20;;;;;;5095577;28;20031;-80
2023/07/20 04:44:25;;;;;;;0.70;0.35;;;20.60;88.10;;;;;;5075006;28;20067;-80
2023/07/20 04:46:51;;;;;;;0.38;0.20;;;20.60;88.30;;;;;;5093286;28;20097;-80
2023/07/20 04:49:17;;;;;;;0.80;0.30;;;20.60;88.50;;;;;;5093575;28;20036;-80
2023/07/20 04:51:43;;;;;;;0.57;0.30;;;20.60;88.30;;;;;;5093613;28;20476;-80
2023/07/20 04:54:08;;;;;;;1.02;0.20;;;20.60;88.40;;;;;;5092482;28;20468;-80
2023/07/20 04:56:34;;;;;;;1.05;0.20;;;20.60;88.60;;;;;;5093551;28;20090;-80
2023/07/20 04:59:00;;;;;;;1.30;0.20;;;20.60;88.60;;;;;;5094182;28;20032;-80
2023/07/20 05:01:26;;;;;;;0.52;0.20;;;20.60;88.70;;;;;;5094306;28;20024;-80
2023/07/20 05:03:52;;;;;;;1.10;0.30;;;20.60;88.60;;;;;;5092443;28;20105;-80
2023/07/20 05:06:18;;;;;;;0.65;0.28;;;20.60;88.50;;;;;;5093726;28;20033;-80
2023/07/20 05:08:44;;;;;;;0.68;0.20;;;20.60;89.20;;;;;;5093582;28;20028;-79
2023/07/20 05:11:11;;;;;;;1.08;0.35;;;20.60;88.60;;;;;;5093312;28;20064;-80
2023/07/20 05:13:37;;;;;;;0.85;0.28;;;20.60;88.60;;;;;;5093095;28;20032;-80
2023/07/20 05:16:03;;;;;;;0.30;0.20;;;20.60;88.60;;;;;;5093296;28;20024;-81
2023/07/20 05:18:29;;;;;;;0.90;0.30;;;20.60;88.70;;;;;;5091412;28;20028;-80
2023/07/20 05:20:55;;;;;;;0.25;0.13;;;20.60;88.50;;;;;;5093192;28;20028;-80
2023/07/20 05:23:21;;;;;;;0.77;0.20;;;20.60;88.60;;;;;;5074876;28;20042;-80
2023/07/20 05:25:47;;;;;;;2.30;0.40;;;20.60;88.60;;;;;;5093299;28;20028;-80
2023/07/20 05:28:13;;;;;;;2.30;0.20;;;20.60;89.20;;;;;;5093655;28;20089;-80
2023/07/20 05:30:40;;;;;;;0.55;0.30;;;20.60;88.80;;;;;;5093313;28;20020;-80
2023/07/20 05:33:05;;;;;;;0.68;0.35;;;20.60;88.80;;;;;;5091832;28;20384;-81
2023/07/20 05:35:31;;;;;;;1.90;0.32;;;20.50;88.60;;;;;;5093543;28;20028;-80
2023/07/20 05:37:57;;;;;;;0.38;0.20;;;20.60;88.70;;;;;;5079232;28;20543;-82
2023/07/20 05:40:22;;;;;;;1.02;0.30;;;20.50;88.10;;;;;;5090798;28;20372;-80
2023/07/20 05:42:51;;;;;;;0.68;0.30;;;20.50;87.80;;;;;;5119630;27;20044;-77
2023/07/20 05:45:18;;;;;;;0.63;0.20;;;20.30;88.20;;;;;;5090552;28;20048;-78
2023/07/20 05:47:43;;;;;;;0.50;0.10;;;20.20;88.50;;;;;;5094742;28;20127;-80
2023/07/20 05:50:10;;;;;;;3.17;0.30;;;20.20;88.60;;;;;;5078283;28;20461;-81
2023/07/20 05:52:38;;;;;;;4.40;0.38;;;20.20;88.90;;;;;;5095572;28;20119;-79
2023/07/20 05:55:05;;;;;;;1.15;0.20;;;20.30;89.10;;;;;;5094466;28;20057;-82
2023/07/20 05:57:30;;;;;;;1.27;0.30;;;20.40;89.10;;;;;;5095775;28;20118;-77
2023/07/20 05:59:56;;;;;;;2.22;0.20;;;20.30;88.90;;;;;;5093473;28;20158;-76
2023/07/20 06:02:22;;;;;;;0.88;0.30;;;20.30;89.10;;;;;;5094491;28;20064;-77
2023/07/20 06:04:47;;;;;;;0.45;0.20;;;20.30;88.70;;;;;;5092504;28;20072;-77
2023/07/20 06:07:13;;;;;;;1.10;0.30;;;20.40;88.70;;;;;;5094600;28;20068;-79
2023/07/20 06:09:39;;;;;;;1.25;0.40;;;20.40;88.70;;;;;;5112465;28;20487;-79
2023/07/20 06:12:05;;;;;;;1.67;0.45;;;20.40;89.10;;;;;;5114848;28;20395;-78
2023/07/20 06:14:31;;;;;;;0.95;0.20;;;20.40;89.20;;;;;;5115846;28;20083;-79
2023/07/20 06:16:57;;;;;;;1.08;0.20;;;20.30;88.00;;;;;;5115653;28;20096;-78
2023/07/20 06:19:22;;;;;;;2.42;1.05;;;20.30;88.90;;;;;;5116198;28;20020;-79
2023/07/20 06:21:49;;;;;;;1.05;0.20;;;20.50;89.20;;;;;;5114679;28;20031;-78
2023/07/20 06:24:16;;;;;;;0.70;0.10;;;20.60;87.90;;;;;;5114669;28;20480;-81
2023/07/20 06:26:41;;;;;;;1.65;0.10;;;20.70;87.90;;;;;;5115537;28;20023;-80
2023/07/20 06:29:08;;;;;;;1.40;0.10;;;20.80;87.90;;;;;;5115194;28;20473;-77
2023/07/20 06:31:35;;;;;;;0.70;0.10;;;20.90;85.70;;;;;;5114097;28;20036;-81
2023/07/20 06:34:01;;;;;;;0.82;0.15;;;20.90;85.50;;;;;;5097521;28;20092;-78
2023/07/20 06:36:27;;;;;;;0.25;0.10;;;20.90;85.70;;;;;;5109685;28;20028;-79
2023/07/20 06:38:53;;;;;;;1.38;0.22;;;20.90;86.20;;;;;;5076574;28;20497;-78
2023/07/20 06:41:19;;;;;;;2.20;0.10;;;21.00;86.00;;;;;;5093881;28;20164;-78
2023/07/20 06:43:45;;;;;;;0.85;0.20;;;21.10;86.30;;;;;;5101234;28;20056;-79
2023/07/20 06:46:11;;;;;;;0.77;0.10;;;21.30;86.00;;;;;;5115271;28;20035;-81
2023/07/20 06:48:36;;;;;;;0.60;0.20;;;21.40;85.50;;;;;;5054523;28;20031;-80
2023/07/20 06:51:02;;;;;;;0.38;0.10;;;21.50;84.00;;;;;;5115247;28;20046;-82
2023/07/20 06:53:29;;;;;;;0.73;0.10;;;21.60;83.10;;;;;;5114993;28;20039;-79
2023/07/20 06:55:56;;;;;;;1.98;0.20;;;21.60;82.90;;;;;;5114152;28;20038;-81
2023/07/20 06:58:25;;;;;;;0.40;0.10;;;21.60;83.30;;;;;;5096391;28;20033;-82
2023/07/20 07:00:51;;;;;;;1.00;0.22;;;21.70;82.50;;;;;;5097234;28;20034;-81
2023/07/20 07:03:17;;;;;;;1.10;0.20;;;21.70;81.90;;;;;;5096555;28;20036;-79
2023/07/20 07:05:44;;;;;;;0.43;0.00;;;21.60;81.10;;;;;;5097030;28;20027;-78
2023/07/20 07:08:09;;;;;;;0.60;0.20;;;21.70;81.70;;;;;;5115666;28;20036;-80
2023/07/20 07:10:36;;;;;;;0.95;0.10;;;21.70;81.50;;;;;;5096959;28;20123;-80
2023/07/20 07:13:02;;;;;;;0.40;0.17;;;21.70;79.50;;;;;;5115190;28;20031;-79
2023/07/20 07:15:28;;;;;;;0.70;0.10;;;21.60;79.40;;;;;;5114892;28;20027;-80
2023/07/20 07:17:54;;;;;;;1.60;0.20;;;21.60;79.20;;;;;;5095887;28;20032;-79
2023/07/20 07:20:19;;;;;;;1.77;0.20;;;21.70;80.20;;;;;;5096477;28;20428;-79
2023/07/20 07:22:46;;;;;;;0.60;0.10;;;21.70;79.30;;;;;;5115022;28;20032;-79
2023/07/20 07:25:12;;;;;;;1.95;0.47;;;21.70;78.80;;;;;;5096873;28;20031;-79
2023/07/20 07:27:38;;;;;;;0.47;0.10;;;21.60;79.00;;;;;;5115112;28;20024;-80
2023/07/20 07:30:04;;;;;;;0.40;0.10;;;21.60;78.30;;;;;;5096714;28;20016;-77
2023/07/20 07:32:30;;;;;;;0.57;0.17;;;21.60;78.30;;;;;;5096436;28;20399;-78
2023/07/20 07:34:58;;;;;;;0.80;0.10;;;21.70;79.90;;;;;;5114712;28;20028;-77
2023/07/20 07:37:24;;;;;;;0.30;0.10;;;21.80;80.20;;;;;;5079810;28;20028;-77
2023/07/20 07:39:49;;;;;;;0.32;0.10;;;21.90;79.30;;;;;;5079701;28;20039;-77
2023/07/20 07:42:15;;;;;;;0.88;0.10;;;21.90;78.70;;;;;;5114450;28;20031;-77
2023/07/20 07:44:40;;;;;;;1.33;0.30;;;21.80;78.30;;;;;;5095889;28;20395;-77
2023/07/20 07:47:06;;;;;;;1.33;0.10;;;21.60;79.10;;;;;;5095840;28;20028;-78
2023/07/20 07:49:32;;;;;;;0.90;0.20;;;21.70;78.60;;;;;;5114221;28;20027;-77
2023/07/20 07:51:58;;;;;;;1.10;0.10;;;21.70;78.90;;;;;;5113972;28;20129;-76
2023/07/20 07:54:24;;;;;;;1.15;0.20;;;21.90;79.40;;;;;;5095841;28;20032;-77
2023/07/20 07:56:51;;;;;;;0.60;0.10;;;21.80;77.00;;;;;;5113357;28;20031;-77
2023/07/20 07:59:17;;;;;;;1.35;0.10;;;21.70;76.20;;;;;;5113458;28;20031;-77
2023/07/20 08:01:42;;;;;;;0.40;0.10;;;21.70;76.60;;;;;;5114067;28;20076;-78
2023/07/20 08:04:08;;;;;;;1.30;0.10;;;21.70;77.80;;;;;;5078772;28;20035;-78
2023/07/20 08:06:34;;;;;;;0.98;0.20;;;21.80;76.00;;;;;;5112830;28;20036;-78
2023/07/20 08:09:00;;;;;;;0.40;0.10;;;21.90;76.40;;;;;;5060828;28;20062;-78
2023/07/20 08:11:26;;;;;;;1.20;0.10;;;22.00;76.50;;;;;;5112879;28;20042;-78
2023/07/20 08:13:52;;;;;;;0.38;0.03;;;22.00;76.70;;;;;;5113533;28;20039;-79
2023/07/20 08:16:17;;;;;;;0.55;0.10;;;22.00;74.50;;;;;;5078934;28;20027;-78
2023/07/20 08:18:45;;;;;;;1.98;0.10;;;21.90;74.00;;;;;;5078260;28;20169;-78
2023/07/20 08:21:11;;;;;;;0.15;0.10;;;22.00;75.50;;;;;;5113539;28;20035;-79
2023/07/20 08:23:36;;;;;;;1.48;0.47;;;22.00;75.80;;;;;;5113945;28;20078;-77
2023/07/20 08:26:02;;;;;;;1.60;0.10;;;22.10;75.60;;;;;;5095330;28;20035;-78
2023/07/20 08:28:29;;;;;;;0.43;0.10;;;22.00;76.00;;;;;;5113559;28;20027;-79
2023/07/20 08:30:54;;;;;;;0.52;0.10;;;22.00;76.40;;;;;;5113488;28;20140;-79
2023/07/20 08:33:20;;;;;;;1.30;0.10;;;22.00;77.00;;;;;;5095072;27;20130;-78
2023/07/20 08:35:46;;;;;;;0.65;0.10;;;22.20;74.80;;;;;;5095636;28;20034;-78
2023/07/20 08:38:12;;;;;;;0.22;0.08;;;22.30;71.50;;;;;;5095832;28;20077;-79
2023/07/20 08:40:44;;;;;;;1.25;0.10;;;22.20;70.90;;;;;;5095647;28;20418;-79
2023/07/20 08:43:11;;;;;;;0.85;0.20;;;22.20;71.60;;;;;;5095490;28;20062;-78
2023/07/20 08:45:39;;;;;;;0.82;0.10;;;22.20;71.30;;;;;;5095365;28;20112;-80
2023/07/20 08:48:06;;;;;;;0.65;0.00;;;22.30;73.50;;;;;;5113203;28;20046;-79
2023/07/20 08:50:32;;;;;;;0.30;0.10;;;22.40;72.50;;;;;;5113795;28;20394;-78
2023/07/20 08:52:59;;;;;;;0.65;0.10;;;22.40;71.50;;;;;;5095710;28;20031;-79
2023/07/20 08:55:26;;;;;;;0.63;0.10;;;22.40;70.60;;;;;;5079772;28;20058;-83
2023/07/20 08:57:57;;;;;;;1.30;0.10;;;22.20;70.50;;;;;;5113395;28;20118;-80
2023/07/20 09:00:24;;;;;;;1.55;0.10;;;22.20;70.90;;;;;;5095666;28;20084;-82
2023/07/20 09:02:51;;;;;;;0.65;0.10;;;22.20;71.60;;;;;;5078660;28;20058;-81
2023/07/20 09:05:18;;;;;;;1.98;0.10;;;22.50;72.50;;;;;;5095949;28;20028;-80
2023/07/20 09:07:44;;;;;;;0.50;0.10;;;22.70;73.00;;;;;;5113919;28;20023;-82
2023/07/20 09:10:11;;;;;;;1.10;0.10;;;22.90;71.90;;;;;;5114394;28;20064;-80
2023/07/20 09:12:38;;;;;;;1.30;0.10;;;22.80;69.00;;;;;;5117803;28;20039;-79
2023/07/20 09:15:05;;;;;;;0.52;0.10;;;22.60;68.80;;;;;;5099456;28;20506;-80
2023/07/20 09:17:31;;;;;;;1.00;0.10;;;22.60;70.00;;;;;;5099064;28;20027;-80
2023/07/20 09:19:57;;;;;;;0.68;0.10;;;22.50;70.80;;;;;;5117533;28;20042;-81
2023/07/20 09:22:30;;;;;;;0.60;0.10;;;22.40;71.80;;;;;;5078818;28;20119;-81
2023/07/20 09:24:56;;;;;;;0.63;0.10;;;22.50;72.00;;;;;;5112526;28;20102;-79
2023/07/20 09:27:21;;;;;;;0.30;0.10;;;22.80;74.40;;;;;;5097768;28;20035;-79
2023/07/20 09:29:51;;;;;;;0.73;0.20;;;23.00;72.90;;;;;;5098573;28;20042;-79
2023/07/20 09:32:23;;;;;;;0.57;0.10;;;23.20;69.50;;;;;;5099018;28;20383;-81
2023/07/20 09:34:51;;;;;;;0.73;0.10;;;23.20;67.80;;;;;;5098779;28;20096;-79
2023/07/20 09:37:24;;;;;;;2.65;0.20;;;23.30;68.00;;;;;;5098994;28;20034;-80
2023/07/20 09:39:55;;;;;;;0.45;0.10;;;23.40;69.10;;;;;;5098963;28;20032;-79
2023/07/20 09:42:22;;;;;;;1.23;0.13;;;23.50;67.60;;;;;;5098513;28;20024;-80
2023/07/20 09:44:48;;;;;;;0.32;0.10;;;23.50;67.80;;;;;;5098643;28;20057;-79
2023/07/20 09:47:22;;;;;;;0.57;0.10;;;23.60;67.70;;;;;;5116568;28;20103;-79
2023/07/20 09:49:48;;;;;;;1.02;0.10;;;23.70;67.70;;;;;;5116979;28;20027;-78
2023/07/20 09:52:15;;;;;;;0.80;0.10;;;23.90;66.80;;;;;;5099036;28;20028;-76
2023/07/20 09:54:44;;;;;;;0.90;0.20;;;23.70;66.60;;;;;;5081851;28;20061;-79
2023/07/20 09:57:13;;;;;;;0.25;0.10;;;23.60;67.80;;;;;;5117211;28;20028;-82
2023/07/20 09:59:39;;;;;;;1.05;0.10;;;23.60;67.40;;;;;;5098629;28;20034;-80
2023/07/20 10:02:13;;;;;;;0.95;0.10;;;23.50;66.80;;;;;;5081746;28;20027;-80
2023/07/20 10:04:41;;;;;;;0.47;0.10;;;23.20;67.60;;;;;;5116475;28;20476;-79
2023/07/20 10:07:13;;;;;;;0.65;0.10;;;23.00;67.50;;;;;;5098649;28;20032;-77
2023/07/20 10:09:39;;;;;;;;;;;22.80;68.20;;;;;;5098976;28;20028;-79
2023/07/20 10:12:07;;;;;;;0.55;0.10;;;22.80;68.40;;;;;;5116645;28;19947;-81
2023/07/20 10:14:38;;;;;;;1.20;0.22;;;22.70;68.10;;;;;;5081778;28;20063;-81
2023/07/20 10:17:06;;;;;;;0.70;0.10;;;22.60;68.20;;;;;;5117147;28;20037;-80
2023/07/20 10:19:31;;;;;;;1.73;0.20;;;22.60;68.40;;;;;;5081405;28;20024;-79
2023/07/20 10:22:03;;;;;;;0.80;0.10;;;22.80;69.40;;;;;;5097359;28;20076;-80
2023/07/20 10:24:31;;;;;;;1.25;0.10;;;22.90;68.30;;;;;;5097591;28;20043;-80
2023/07/20 10:26:57;;;;;;;0.75;0.13;;;23.00;68.70;;;;;;5116541;28;20031;-78
2023/07/20 10:29:24;;;;;;;0.80;0.10;;;23.00;68.70;;;;;;5116356;28;20165;-81
2023/07/20 10:31:50;;;;;;;1.08;0.10;;;23.30;68.60;;;;;;5117416;27;20027;-79
2023/07/20 10:34:17;;;;;;;1.00;0.10;;;23.40;67.70;;;;;;5099045;27;20038;-81
2023/07/20 10:36:50;;;;;;;0.25;0.10;;;23.50;67.70;;;;;;5108347;27;20035;-80
2023/07/20 10:39:34;;;;;;;0.73;0.10;;;23.70;68.20;;;;;;5091092;28;20036;-79
2023/07/20 10:42:03;;;;;;;1.98;0.10;;;23.90;66.70;;;;;;5084872;28;20035;-78
2023/07/20 10:44:29;;;;;;;0.60;0.13;;;23.90;65.80;;;;;;5102201;28;20059;-77
2023/07/20 10:47:02;;;;;;;0.60;0.00;;;23.80;65.60;;;;;;5113315;28;20035;-79
2023/07/20 10:49:28;;;;;;;1.13;0.10;;;23.70;65.90;;;;;;5095820;28;20164;-80
2023/07/20 10:51:59;;;;;;;0.30;0.10;;;23.60;66.70;;;;;;5115565;28;20015;-79
2023/07/20 10:54:27;;;;;;;0.82;0.10;;;23.50;68.60;;;;;;5113205;28;20076;-80
2023/07/20 10:56:56;;;;;;;0.50;0.10;;;23.70;69.10;;;;;;5096916;28;20380;-80
2023/07/20 10:59:24;;;;;;;0.75;0.10;;;23.80;66.80;;;;;;5094359;28;20027;-79
2023/07/20 11:01:55;;;;;;;2.20;0.20;;;23.90;66.90;;;;;;5115147;28;20019;-79
2023/07/20 11:04:44;;;;;;;1.27;0.20;;;24.00;67.50;;;;;;5115352;28;20023;-80
2023/07/20 11:07:10;;;;;;;0.75;0.20;;;24.00;68.80;;;;;;5096346;28;20028;-78
2023/07/20 11:09:37;;;;;;;0.45;0.17;;;24.00;68.60;;;;;;5115201;28;20039;-78
2023/07/20 11:12:29;;;;;;;0.80;0.20;;;23.90;66.80;;;;;;5094499;28;20024;-79
2023/07/20 11:14:57;;;;;;;0.75;0.10;;;23.60;67.00;;;;;;5116825;27;20070;-80
2023/07/20 11:17:30;;;;;;;2.33;0.10;;;23.40;67.30;;;;;;5112107;28;20034;-79
2023/07/20 11:19:56;;;;;;;1.02;0.10;;;23.40;68.00;;;;;;5114877;28;20079;-80
2023/07/20 11:22:22;;;;;;;1.30;0.35;;;23.30;67.20;;;;;;5114543;28;20495;-80
2023/07/20 11:24:49;;;;;;;1.85;0.20;;;23.20;66.50;;;;;;5096030;28;20133;-81
2023/07/20 11:27:15;;;;;;;1.35;0.10;;;23.10;68.40;;;;;;5114041;28;20503;-81
2023/07/20 11:29:41;;;;;;;0.30;0.10;;;23.20;69.70;;;;;;5113214;28;20134;-82
2023/07/20 11:32:07;;;;;;;0.98;0.20;;;23.40;69.30;;;;;;5096242;28;20036;-81
2023/07/20 11:34:33;;;;;;;0.80;0.20;;;23.60;68.40;;;;;;5114585;28;20031;-81
2023/07/20 11:37:00;;;;;;;0.90;0.20;;;23.60;68.10;;;;;;5079861;28;20403;-81
2023/07/20 11:39:26;;;;;;;1.75;0.20;;;23.50;68.20;;;;;;5114994;28;20056;-81
2023/07/20 11:41:56;;;;;;;1.50;0.20;;;23.40;67.30;;;;;;5096587;28;20400;-81
2023/07/20 11:44:29;;;;;;;0.32;0.10;;;23.30;67.80;;;;;;5096623;28;20495;-82
2023/07/20 11:47:06;;;;;;;1.38;0.10;;;23.30;68.30;;;;;;5114804;28;20032;-81
2023/07/20 11:49:42;;;;;;;0.20;0.00;;;23.20;69.80;;;;;;5096511;28;20031;-81
2023/07/20 11:52:10;;;;;;;0.32;0.10;;;23.20;70.90;;;;;;5096392;28;20379;-81
2023/07/20 11:54:39;;;;;;;0.20;0.00;;;23.20;71.20;;;;;;5114511;28;20062;-81
2023/07/20 11:57:05;;;;;;;0.75;0.15;;;23.20;71.00;;;;;;5114508;28;20027;-80
2023/07/20 11:59:31;;;;;;;0.47;0.10;;;23.20;70.20;;;;;;5096303;28;20028;-79
2023/07/20 12:02:06;;;;;;;0.65;0.10;;;23.20;70.40;;;;;;5114702;28;20034;-80
2023/07/20 12:04:32;;;;;;;1.23;0.15;;;23.20;71.40;;;;;;5114353;28;20035;-80
2023/07/20 12:06:59;;;;;;;1.48;0.63;;;23.50;72.80;;;;;;5114548;28;20127;-79
2023/07/20 12:09:24;;;;;;;1.95;0.17;;;23.70;70.10;;;;;;5095970;28;20036;-80
2023/07/20 12:11:50;;;;;;;0.90;0.20;;;23.90;69.90;;;;;;5114452;28;20103;-81
2023/07/20 12:14:17;;;;;;;1.17;0.10;;;24.10;69.80;;;;;;5079199;28;20068;-80
2023/07/20 12:16:42;;;;;;;1.63;0.10;;;24.10;68.30;;;;;;5114426;28;20020;-80
2023/07/20 12:19:13;;;;;;;0.40;0.10;;;24.00;67.10;;;;;;5078629;28;20035;-80
2023/07/20 12:21:41;;;;;;;1.92;0.00;;;23.90;68.00;;;;;;5095862;28;20076;-80
2023/07/20 12:24:09;;;;;;;0.73;0.13;;;23.90;69.30;;;;;;5096206;28;20111;-80
2023/07/20 12:26:35;;;;;;;1.20;0.10;;;23.90;68.50;;;;;;5095890;28;20047;-80
2023/07/20 12:29:00;;;;;;;0.52;0.10;;;24.00;67.10;;;;;;5079045;28;20104;-80
2023/07/20 12:31:27;;;;;;;0.70;0.17;;;24.00;67.50;;;;;;5113694;28;20460;-80
2023/07/20 12:33:57;;;;;;;1.33;0.20;;;24.20;68.30;;;;;;5113678;28;20042;-80
2023/07/20 12:36:23;;;;;;;0.20;0.10;;;24.40;65.60;;;;;;5113890;28;20034;-79
2023/07/20 12:38:48;;;;;;;0.45;0.10;;;24.40;64.40;;;;;;5095575;28;20019;-80
2023/07/20 12:41:14;;;;;;;2.35;0.10;;;24.40;64.90;;;;;;5113950;28;20034;-80
2023/07/20 12:43:46;;;;;;;3.67;0.30;;;24.30;65.50;;;;;;5095038;28;20059;-80
2023/07/20 12:46:13;;;;;;;0.55;0.13;;;24.10;66.50;;;;;;5095189;28;20028;-79
2023/07/20 12:48:41;;;;;;;1.23;0.45;;;24.10;66.20;;;;;;5112859;28;20536;-79